sensor_id;sensor_type;location;lat;lon;timestamp;P1;durP1;ratioP1;P2;durP2;ratioP2
37641;SDS011;23486;51.956;5.888;2023-05-29T00:00:47;13.65;;;2.25;;
37641;SDS011;23486;51.956;5.888;2023-05-29T00:03:12;13.85;;;1.85;;
37641;SDS011;23486;51.956;5.888;2023-05-29T00:05:42;18.95;;;2.17;;
37641;SDS011;23486;51.956;5.888;2023-05-29T00:08:08;17.85;;;2.35;;
37641;SDS011;23486;51.956;5.888;2023-05-29T00:10:33;13.93;;;1.88;;
37641;SDS011;23486;51.956;5.888;2023-05-29T00:13:00;13.32;;;2.00;;
37641;SDS011;23486;51.956;5.888;2023-05-29T00:15:26;11.65;;;1.50;;
37641;SDS011;23486;51.956;5.888;2023-05-29T00:17:52;23.25;;;2.67;;
37641;SDS011;23486;51.956;5.888;2023-05-29T00:20:18;11.07;;;1.67;;
37641;SDS011;23486;51.956;5.888;2023-05-29T00:22:43;12.43;;;1.48;;
37641;SDS011;23486;51.956;5.888;2023-05-29T00:25:09;15.38;;;2.20;;
37641;SDS011;23486;51.956;5.888;2023-05-29T00:27:35;10.05;;;1.17;;
37641;SDS011;23486;51.956;5.888;2023-05-29T00:30:00;12.43;;;1.88;;
37641;SDS011;23486;51.956;5.888;2023-05-29T00:32:27;15.15;;;1.55;;
37641;SDS011;23486;51.956;5.888;2023-05-29T00:34:53;10.73;;;1.50;;
37641;SDS011;23486;51.956;5.888;2023-05-29T00:37:20;15.77;;;2.20;;
37641;SDS011;23486;51.956;5.888;2023-05-29T00:39:49;18.65;;;1.60;;
37641;SDS011;23486;51.956;5.888;2023-05-29T00:42:15;12.02;;;1.55;;
37641;SDS011;23486;51.956;5.888;2023-05-29T00:44:40;9.23;;;1.35;;
37641;SDS011;23486;51.956;5.888;2023-05-29T00:47:06;12.95;;;1.45;;
37641;SDS011;23486;51.956;5.888;2023-05-29T00:49:32;17.83;;;1.58;;
37641;SDS011;23486;51.956;5.888;2023-05-29T00:52:00;19.98;;;2.13;;
37641;SDS011;23486;51.956;5.888;2023-05-29T00:54:28;13.30;;;1.23;;
37641;SDS011;23486;51.956;5.888;2023-05-29T00:56:55;7.50;;;0.82;;
37641;SDS011;23486;51.956;5.888;2023-05-29T00:59:22;11.18;;;1.92;;
37641;SDS011;23486;51.956;5.888;2023-05-29T01:01:49;13.68;;;1.50;;
37641;SDS011;23486;51.956;5.888;2023-05-29T01:04:16;15.82;;;1.48;;
37641;SDS011;23486;51.956;5.888;2023-05-29T01:06:42;15.57;;;1.80;;
37641;SDS011;23486;51.956;5.888;2023-05-29T01:09:11;23.08;;;2.30;;
37641;SDS011;23486;51.956;5.888;2023-05-29T01:17:28;10.88;;;1.73;;
37641;SDS011;23486;51.956;5.888;2023-05-29T01:28:41;19.90;;;1.58;;
37641;SDS011;23486;51.956;5.888;2023-05-29T01:31:09;17.23;;;2.15;;
37641;SDS011;23486;51.956;5.888;2023-05-29T01:33:42;11.80;;;0.90;;
37641;SDS011;23486;51.956;5.888;2023-05-29T01:38:41;12.18;;;1.42;;
37641;SDS011;23486;51.956;5.888;2023-05-29T01:41:07;14.57;;;2.08;;
37641;SDS011;23486;51.956;5.888;2023-05-29T01:43:32;20.27;;;1.33;;
37641;SDS011;23486;51.956;5.888;2023-05-29T01:45:58;8.95;;;0.88;;
37641;SDS011;23486;51.956;5.888;2023-05-29T01:48:24;11.75;;;1.45;;
37641;SDS011;23486;51.956;5.888;2023-05-29T01:50:50;14.75;;;1.60;;
37641;SDS011;23486;51.956;5.888;2023-05-29T01:53:16;25.50;;;2.55;;
37641;SDS011;23486;51.956;5.888;2023-05-29T01:55:42;12.27;;;1.02;;
37641;SDS011;23486;51.956;5.888;2023-05-29T01:58:08;21.20;;;1.35;;
37641;SDS011;23486;51.956;5.888;2023-05-29T02:00:35;12.02;;;1.25;;
37641;SDS011;23486;51.956;5.888;2023-05-29T02:03:01;12.38;;;1.42;;
37641;SDS011;23486;51.956;5.888;2023-05-29T02:05:27;12.18;;;1.55;;
37641;SDS011;23486;51.956;5.888;2023-05-29T02:07:52;19.67;;;1.63;;
37641;SDS011;23486;51.956;5.888;2023-05-29T02:10:18;16.08;;;1.45;;
37641;SDS011;23486;51.956;5.888;2023-05-29T02:12:43;14.65;;;1.92;;
37641;SDS011;23486;51.956;5.888;2023-05-29T02:15:09;16.70;;;2.28;;
37641;SDS011;23486;51.956;5.888;2023-05-29T02:17:38;11.50;;;1.40;;
37641;SDS011;23486;51.956;5.888;2023-05-29T02:20:04;16.65;;;2.35;;
37641;SDS011;23486;51.956;5.888;2023-05-29T02:22:30;19.23;;;2.42;;
37641;SDS011;23486;51.956;5.888;2023-05-29T02:24:55;13.20;;;1.35;;
37641;SDS011;23486;51.956;5.888;2023-05-29T02:27:21;16.60;;;1.25;;
37641;SDS011;23486;51.956;5.888;2023-05-29T02:29:47;14.05;;;1.65;;
37641;SDS011;23486;51.956;5.888;2023-05-29T02:32:12;11.90;;;1.33;;
37641;SDS011;23486;51.956;5.888;2023-05-29T02:34:38;22.40;;;3.00;;
37641;SDS011;23486;51.956;5.888;2023-05-29T02:37:03;13.18;;;2.15;;
37641;SDS011;23486;51.956;5.888;2023-05-29T02:39:29;14.73;;;1.77;;
37641;SDS011;23486;51.956;5.888;2023-05-29T02:41:55;11.85;;;2.00;;
37641;SDS011;23486;51.956;5.888;2023-05-29T02:44:20;17.77;;;1.83;;
37641;SDS011;23486;51.956;5.888;2023-05-29T02:46:46;15.90;;;1.42;;
37641;SDS011;23486;51.956;5.888;2023-05-29T02:49:11;24.15;;;2.90;;
37641;SDS011;23486;51.956;5.888;2023-05-29T02:51:37;13.73;;;2.38;;
37641;SDS011;23486;51.956;5.888;2023-05-29T02:54:02;15.65;;;1.88;;
37641;SDS011;23486;51.956;5.888;2023-05-29T02:56:28;16.75;;;1.60;;
37641;SDS011;23486;51.956;5.888;2023-05-29T02:58:54;11.25;;;1.10;;
37641;SDS011;23486;51.956;5.888;2023-05-29T03:01:19;15.77;;;1.42;;
37641;SDS011;23486;51.956;5.888;2023-05-29T03:03:45;18.90;;;1.20;;
37641;SDS011;23486;51.956;5.888;2023-05-29T03:06:10;21.25;;;1.70;;
37641;SDS011;23486;51.956;5.888;2023-05-29T03:08:37;11.38;;;1.15;;
37641;SDS011;23486;51.956;5.888;2023-05-29T03:11:08;13.20;;;1.02;;
37641;SDS011;23486;51.956;5.888;2023-05-29T03:13:36;15.13;;;1.70;;
37641;SDS011;23486;51.956;5.888;2023-05-29T03:16:05;14.32;;;1.50;;
37641;SDS011;23486;51.956;5.888;2023-05-29T03:18:33;18.80;;;1.60;;
37641;SDS011;23486;51.956;5.888;2023-05-29T03:20:59;15.52;;;1.65;;
37641;SDS011;23486;51.956;5.888;2023-05-29T03:23:27;14.20;;;1.50;;
37641;SDS011;23486;51.956;5.888;2023-05-29T03:25:52;17.13;;;2.30;;
37641;SDS011;23486;51.956;5.888;2023-05-29T03:28:18;19.52;;;1.77;;
37641;SDS011;23486;51.956;5.888;2023-05-29T03:30:43;15.07;;;1.90;;
37641;SDS011;23486;51.956;5.888;2023-05-29T03:33:09;15.90;;;1.92;;
37641;SDS011;23486;51.956;5.888;2023-05-29T03:35:35;17.92;;;1.40;;
37641;SDS011;23486;51.956;5.888;2023-05-29T03:38:00;22.25;;;1.90;;
37641;SDS011;23486;51.956;5.888;2023-05-29T03:40:26;19.77;;;1.95;;
37641;SDS011;23486;51.956;5.888;2023-05-29T03:42:51;19.27;;;2.50;;
37641;SDS011;23486;51.956;5.888;2023-05-29T03:45:17;17.83;;;2.00;;
37641;SDS011;23486;51.956;5.888;2023-05-29T03:47:43;16.02;;;2.42;;
37641;SDS011;23486;51.956;5.888;2023-05-29T03:50:08;13.50;;;1.20;;
37641;SDS011;23486;51.956;5.888;2023-05-29T03:52:34;25.88;;;1.95;;
37641;SDS011;23486;51.956;5.888;2023-05-29T03:55:02;21.95;;;1.70;;
37641;SDS011;23486;51.956;5.888;2023-05-29T03:57:28;17.60;;;2.53;;
37641;SDS011;23486;51.956;5.888;2023-05-29T03:59:54;25.13;;;1.90;;
37641;SDS011;23486;51.956;5.888;2023-05-29T04:02:19;16.77;;;1.25;;
37641;SDS011;23486;51.956;5.888;2023-05-29T04:04:45;20.15;;;2.17;;
37641;SDS011;23486;51.956;5.888;2023-05-29T04:07:10;18.55;;;2.80;;
37641;SDS011;23486;51.956;5.888;2023-05-29T04:09:36;16.63;;;2.58;;
37641;SDS011;23486;51.956;5.888;2023-05-29T04:12:02;17.17;;;2.30;;
37641;SDS011;23486;51.956;5.888;2023-05-29T04:14:30;10.68;;;1.50;;
37641;SDS011;23486;51.956;5.888;2023-05-29T04:16:56;18.60;;;2.60;;
37641;SDS011;23486;51.956;5.888;2023-05-29T04:19:22;19.27;;;1.80;;
37641;SDS011;23486;51.956;5.888;2023-05-29T04:21:47;15.93;;;2.17;;
37641;SDS011;23486;51.956;5.888;2023-05-29T04:24:13;20.08;;;2.38;;
37641;SDS011;23486;51.956;5.888;2023-05-29T04:26:39;14.80;;;1.40;;
37641;SDS011;23486;51.956;5.888;2023-05-29T04:29:06;12.75;;;1.33;;
37641;SDS011;23486;51.956;5.888;2023-05-29T04:31:37;22.45;;;2.35;;
37641;SDS011;23486;51.956;5.888;2023-05-29T04:34:03;18.40;;;2.38;;
37641;SDS011;23486;51.956;5.888;2023-05-29T04:36:32;24.25;;;1.88;;
37641;SDS011;23486;51.956;5.888;2023-05-29T04:39:03;15.65;;;2.40;;
37641;SDS011;23486;51.956;5.888;2023-05-29T04:41:30;17.95;;;2.08;;
37641;SDS011;23486;51.956;5.888;2023-05-29T04:43:56;19.38;;;1.83;;
37641;SDS011;23486;51.956;5.888;2023-05-29T04:46:25;20.25;;;2.20;;
37641;SDS011;23486;51.956;5.888;2023-05-29T04:48:53;18.00;;;1.90;;
37641;SDS011;23486;51.956;5.888;2023-05-29T04:51:21;19.40;;;1.70;;
37641;SDS011;23486;51.956;5.888;2023-05-29T04:53:50;16.30;;;1.52;;
37641;SDS011;23486;51.956;5.888;2023-05-29T04:56:19;14.63;;;2.22;;
37641;SDS011;23486;51.956;5.888;2023-05-29T04:58:45;18.02;;;2.10;;
37641;SDS011;23486;51.956;5.888;2023-05-29T05:01:11;18.92;;;1.65;;
37641;SDS011;23486;51.956;5.888;2023-05-29T05:03:39;18.30;;;1.25;;
37641;SDS011;23486;51.956;5.888;2023-05-29T05:06:05;31.08;;;3.13;;
37641;SDS011;23486;51.956;5.888;2023-05-29T05:08:35;22.13;;;2.25;;
37641;SDS011;23486;51.956;5.888;2023-05-29T05:11:01;16.35;;;2.15;;
37641;SDS011;23486;51.956;5.888;2023-05-29T05:13:27;17.02;;;1.60;;
37641;SDS011;23486;51.956;5.888;2023-05-29T05:15:53;20.77;;;2.30;;
37641;SDS011;23486;51.956;5.888;2023-05-29T05:18:19;26.15;;;2.90;;
37641;SDS011;23486;51.956;5.888;2023-05-29T05:20:44;22.60;;;2.63;;
37641;SDS011;23486;51.956;5.888;2023-05-29T05:23:10;22.10;;;1.83;;
37641;SDS011;23486;51.956;5.888;2023-05-29T05:25:36;16.63;;;2.50;;
37641;SDS011;23486;51.956;5.888;2023-05-29T05:28:03;18.35;;;2.00;;
37641;SDS011;23486;51.956;5.888;2023-05-29T05:30:29;18.60;;;1.17;;
37641;SDS011;23486;51.956;5.888;2023-05-29T05:32:55;21.13;;;2.25;;
37641;SDS011;23486;51.956;5.888;2023-05-29T05:35:24;17.75;;;1.25;;
37641;SDS011;23486;51.956;5.888;2023-05-29T05:37:50;11.82;;;2.17;;
37641;SDS011;23486;51.956;5.888;2023-05-29T05:40:22;13.90;;;1.50;;
37641;SDS011;23486;51.956;5.888;2023-05-29T05:42:47;17.27;;;1.75;;
37641;SDS011;23486;51.956;5.888;2023-05-29T05:45:13;15.68;;;1.50;;
37641;SDS011;23486;51.956;5.888;2023-05-29T05:47:38;12.60;;;1.25;;
37641;SDS011;23486;51.956;5.888;2023-05-29T05:50:04;16.17;;;1.30;;
37641;SDS011;23486;51.956;5.888;2023-05-29T05:52:30;9.05;;;1.10;;
37641;SDS011;23486;51.956;5.888;2023-05-29T05:54:57;15.52;;;1.33;;
37641;SDS011;23486;51.956;5.888;2023-05-29T05:57:23;15.85;;;1.58;;
37641;SDS011;23486;51.956;5.888;2023-05-29T05:59:48;19.95;;;1.88;;
37641;SDS011;23486;51.956;5.888;2023-05-29T06:02:14;21.25;;;1.33;;
37641;SDS011;23486;51.956;5.888;2023-05-29T06:04:40;16.90;;;2.33;;
37641;SDS011;23486;51.956;5.888;2023-05-29T06:07:06;18.38;;;1.48;;
37641;SDS011;23486;51.956;5.888;2023-05-29T06:09:32;13.55;;;1.48;;
37641;SDS011;23486;51.956;5.888;2023-05-29T06:11:57;12.50;;;1.00;;
37641;SDS011;23486;51.956;5.888;2023-05-29T06:14:24;12.43;;;1.13;;
37641;SDS011;23486;51.956;5.888;2023-05-29T06:16:49;21.52;;;1.80;;
37641;SDS011;23486;51.956;5.888;2023-05-29T06:19:15;10.27;;;1.50;;
37641;SDS011;23486;51.956;5.888;2023-05-29T06:21:41;13.95;;;0.98;;
37641;SDS011;23486;51.956;5.888;2023-05-29T06:24:07;9.20;;;1.08;;
37641;SDS011;23486;51.956;5.888;2023-05-29T06:26:33;11.38;;;0.82;;
37641;SDS011;23486;51.956;5.888;2023-05-29T06:28:58;15.70;;;1.88;;
37641;SDS011;23486;51.956;5.888;2023-05-29T06:31:24;13.48;;;1.35;;
37641;SDS011;23486;51.956;5.888;2023-05-29T06:33:50;13.48;;;0.73;;
37641;SDS011;23486;51.956;5.888;2023-05-29T06:36:16;15.25;;;2.38;;
37641;SDS011;23486;51.956;5.888;2023-05-29T06:38:47;18.08;;;1.48;;
37641;SDS011;23486;51.956;5.888;2023-05-29T06:41:13;11.40;;;1.23;;
37641;SDS011;23486;51.956;5.888;2023-05-29T06:43:39;13.10;;;0.95;;
37641;SDS011;23486;51.956;5.888;2023-05-29T06:46:04;17.27;;;1.25;;
37641;SDS011;23486;51.956;5.888;2023-05-29T06:48:33;10.05;;;1.60;;
37641;SDS011;23486;51.956;5.888;2023-05-29T06:51:02;12.15;;;1.23;;
37641;SDS011;23486;51.956;5.888;2023-05-29T06:53:36;10.13;;;0.60;;
37641;SDS011;23486;51.956;5.888;2023-05-29T06:56:05;11.73;;;0.98;;
37641;SDS011;23486;51.956;5.888;2023-05-29T06:58:31;19.63;;;1.88;;
37641;SDS011;23486;51.956;5.888;2023-05-29T07:00:57;8.10;;;0.50;;
37641;SDS011;23486;51.956;5.888;2023-05-29T07:03:24;15.57;;;1.65;;
37641;SDS011;23486;51.956;5.888;2023-05-29T07:05:50;10.88;;;0.70;;
37641;SDS011;23486;51.956;5.888;2023-05-29T07:08:16;9.75;;;0.80;;
37641;SDS011;23486;51.956;5.888;2023-05-29T07:10:42;10.68;;;1.20;;
37641;SDS011;23486;51.956;5.888;2023-05-29T07:13:14;11.38;;;1.00;;
37641;SDS011;23486;51.956;5.888;2023-05-29T07:15:41;9.52;;;1.20;;
37641;SDS011;23486;51.956;5.888;2023-05-29T07:18:07;14.32;;;1.05;;
37641;SDS011;23486;51.956;5.888;2023-05-29T07:20:32;16.23;;;1.30;;
37641;SDS011;23486;51.956;5.888;2023-05-29T07:22:58;10.65;;;0.80;;
37641;SDS011;23486;51.956;5.888;2023-05-29T07:25:23;12.82;;;1.45;;
37641;SDS011;23486;51.956;5.888;2023-05-29T07:27:55;6.30;;;0.93;;
37641;SDS011;23486;51.956;5.888;2023-05-29T07:30:21;8.18;;;0.90;;
37641;SDS011;23486;51.956;5.888;2023-05-29T07:32:47;9.93;;;0.60;;
37641;SDS011;23486;51.956;5.888;2023-05-29T07:35:12;9.90;;;1.38;;
37641;SDS011;23486;51.956;5.888;2023-05-29T07:37:38;7.03;;;1.13;;
37641;SDS011;23486;51.956;5.888;2023-05-29T07:40:03;9.70;;;1.10;;
37641;SDS011;23486;51.956;5.888;2023-05-29T07:42:33;8.40;;;0.70;;
37641;SDS011;23486;51.956;5.888;2023-05-29T07:44:59;7.75;;;0.70;;
37641;SDS011;23486;51.956;5.888;2023-05-29T07:47:25;15.05;;;1.85;;
37641;SDS011;23486;51.956;5.888;2023-05-29T07:49:53;13.93;;;1.05;;
37641;SDS011;23486;51.956;5.888;2023-05-29T07:52:19;8.73;;;0.82;;
37641;SDS011;23486;51.956;5.888;2023-05-29T07:54:45;12.55;;;1.55;;
37641;SDS011;23486;51.956;5.888;2023-05-29T07:57:10;10.80;;;1.23;;
37641;SDS011;23486;51.956;5.888;2023-05-29T07:59:36;11.95;;;1.38;;
37641;SDS011;23486;51.956;5.888;2023-05-29T08:02:02;11.00;;;1.35;;
37641;SDS011;23486;51.956;5.888;2023-05-29T08:04:31;13.73;;;1.05;;
37641;SDS011;23486;51.956;5.888;2023-05-29T08:06:57;10.07;;;0.90;;
37641;SDS011;23486;51.956;5.888;2023-05-29T08:09:24;12.63;;;0.95;;
37641;SDS011;23486;51.956;5.888;2023-05-29T08:11:49;11.90;;;1.23;;
37641;SDS011;23486;51.956;5.888;2023-05-29T08:14:18;9.55;;;1.00;;
37641;SDS011;23486;51.956;5.888;2023-05-29T08:16:43;12.77;;;1.40;;
37641;SDS011;23486;51.956;5.888;2023-05-29T08:19:09;12.63;;;1.63;;
37641;SDS011;23486;51.956;5.888;2023-05-29T08:21:34;12.60;;;1.52;;
37641;SDS011;23486;51.956;5.888;2023-05-29T08:24:01;13.07;;;1.35;;
37641;SDS011;23486;51.956;5.888;2023-05-29T08:26:29;6.60;;;0.70;;
37641;SDS011;23486;51.956;5.888;2023-05-29T08:28:55;10.10;;;0.80;;
37641;SDS011;23486;51.956;5.888;2023-05-29T08:31:21;9.50;;;0.82;;
37641;SDS011;23486;51.956;5.888;2023-05-29T08:33:49;8.27;;;0.73;;
37641;SDS011;23486;51.956;5.888;2023-05-29T08:36:17;9.15;;;0.73;;
37641;SDS011;23486;51.956;5.888;2023-05-29T08:38:45;6.32;;;0.50;;
37641;SDS011;23486;51.956;5.888;2023-05-29T08:41:13;9.13;;;0.73;;
37641;SDS011;23486;51.956;5.888;2023-05-29T08:43:47;11.13;;;1.15;;
37641;SDS011;23486;51.956;5.888;2023-05-29T08:46:15;10.45;;;1.20;;
37641;SDS011;23486;51.956;5.888;2023-05-29T08:48:43;13.55;;;0.90;;
37641;SDS011;23486;51.956;5.888;2023-05-29T08:51:20;6.47;;;0.95;;
37641;SDS011;23486;51.956;5.888;2023-05-29T08:53:48;9.00;;;0.85;;
37641;SDS011;23486;51.956;5.888;2023-05-29T08:56:14;7.47;;;0.80;;
37641;SDS011;23486;51.956;5.888;2023-05-29T08:58:40;5.80;;;0.80;;
37641;SDS011;23486;51.956;5.888;2023-05-29T09:01:07;10.18;;;1.30;;
37641;SDS011;23486;51.956;5.888;2023-05-29T09:03:34;9.57;;;0.90;;
37641;SDS011;23486;51.956;5.888;2023-05-29T09:05:59;6.82;;;0.80;;
37641;SDS011;23486;51.956;5.888;2023-05-29T09:08:25;7.50;;;0.82;;
37641;SDS011;23486;51.956;5.888;2023-05-29T09:10:53;7.20;;;0.73;;
37641;SDS011;23486;51.956;5.888;2023-05-29T09:13:20;8.85;;;0.73;;
37641;SDS011;23486;51.956;5.888;2023-05-29T09:15:45;5.70;;;0.68;;
37641;SDS011;23486;51.956;5.888;2023-05-29T09:18:11;9.55;;;1.40;;
37641;SDS011;23486;51.956;5.888;2023-05-29T09:20:37;8.18;;;1.10;;
37641;SDS011;23486;51.956;5.888;2023-05-29T09:23:03;6.18;;;0.70;;
37641;SDS011;23486;51.956;5.888;2023-05-29T09:25:32;8.45;;;1.13;;
37641;SDS011;23486;51.956;5.888;2023-05-29T09:28:02;8.35;;;1.23;;
37641;SDS011;23486;51.956;5.888;2023-05-29T09:30:46;8.10;;;1.02;;
37641;SDS011;23486;51.956;5.888;2023-05-29T09:33:12;6.53;;;0.93;;
37641;SDS011;23486;51.956;5.888;2023-05-29T09:35:39;8.05;;;0.80;;
37641;SDS011;23486;51.956;5.888;2023-05-29T09:38:07;8.00;;;0.70;;
37641;SDS011;23486;51.956;5.888;2023-05-29T09:40:34;7.97;;;0.77;;
37641;SDS011;23486;51.956;5.888;2023-05-29T09:43:02;7.05;;;0.95;;
37641;SDS011;23486;51.956;5.888;2023-05-29T09:45:32;9.05;;;1.05;;
37641;SDS011;23486;51.956;5.888;2023-05-29T09:47:58;7.07;;;1.23;;
37641;SDS011;23486;51.956;5.888;2023-05-29T09:50:26;9.32;;;1.42;;
37641;SDS011;23486;51.956;5.888;2023-05-29T09:52:53;9.50;;;0.77;;
37641;SDS011;23486;51.956;5.888;2023-05-29T09:55:22;7.78;;;0.95;;
37641;SDS011;23486;51.956;5.888;2023-05-29T09:57:48;8.35;;;1.30;;
37641;SDS011;23486;51.956;5.888;2023-05-29T10:00:15;11.80;;;1.40;;
37641;SDS011;23486;51.956;5.888;2023-05-29T10:02:42;12.15;;;1.35;;
37641;SDS011;23486;51.956;5.888;2023-05-29T10:05:11;6.68;;;1.13;;
37641;SDS011;23486;51.956;5.888;2023-05-29T10:07:40;8.65;;;1.00;;
37641;SDS011;23486;51.956;5.888;2023-05-29T10:10:12;13.30;;;1.70;;
37641;SDS011;23486;51.956;5.888;2023-05-29T10:12:39;9.20;;;1.33;;
37641;SDS011;23486;51.956;5.888;2023-05-29T10:15:11;10.15;;;1.10;;
37641;SDS011;23486;51.956;5.888;2023-05-29T10:17:39;7.75;;;1.30;;
37641;SDS011;23486;51.956;5.888;2023-05-29T10:20:14;11.35;;;1.13;;
37641;SDS011;23486;51.956;5.888;2023-05-29T10:22:41;8.02;;;0.80;;
37641;SDS011;23486;51.956;5.888;2023-05-29T10:25:11;9.23;;;0.85;;
37641;SDS011;23486;51.956;5.888;2023-05-29T10:27:40;10.00;;;0.95;;
37641;SDS011;23486;51.956;5.888;2023-05-29T10:32:42;6.93;;;1.00;;
37641;SDS011;23486;51.956;5.888;2023-05-29T10:35:22;6.60;;;0.70;;
37641;SDS011;23486;51.956;5.888;2023-05-29T10:38:03;6.60;;;0.70;;
37641;SDS011;23486;51.956;5.888;2023-05-29T10:40:43;7.95;;;0.65;;
37641;SDS011;23486;51.956;5.888;2023-05-29T10:43:10;10.75;;;1.10;;
37641;SDS011;23486;51.956;5.888;2023-05-29T10:45:59;8.35;;;0.80;;
37641;SDS011;23486;51.956;5.888;2023-05-29T10:50:54;10.98;;;1.52;;
37641;SDS011;23486;51.956;5.888;2023-05-29T10:53:31;8.32;;;1.08;;
37641;SDS011;23486;51.956;5.888;2023-05-29T10:55:58;7.15;;;0.73;;
37641;SDS011;23486;51.956;5.888;2023-05-29T10:58:26;7.43;;;0.88;;
37641;SDS011;23486;51.956;5.888;2023-05-29T11:00:52;9.35;;;1.10;;
37641;SDS011;23486;51.956;5.888;2023-05-29T11:03:20;5.47;;;0.80;;
37641;SDS011;23486;51.956;5.888;2023-05-29T11:08:28;7.68;;;1.00;;
37641;SDS011;23486;51.956;5.888;2023-05-29T11:10:58;9.70;;;1.25;;
37641;SDS011;23486;51.956;5.888;2023-05-29T11:13:36;8.10;;;0.98;;
37641;SDS011;23486;51.956;5.888;2023-05-29T11:18:50;6.03;;;0.75;;
37641;SDS011;23486;51.956;5.888;2023-05-29T11:24:01;7.50;;;0.93;;
37641;SDS011;23486;51.956;5.888;2023-05-29T11:26:28;8.45;;;0.82;;
37641;SDS011;23486;51.956;5.888;2023-05-29T11:29:02;6.55;;;0.95;;
37641;SDS011;23486;51.956;5.888;2023-05-29T11:31:35;9.93;;;1.20;;
37641;SDS011;23486;51.956;5.888;2023-05-29T11:34:04;10.30;;;1.02;;
37641;SDS011;23486;51.956;5.888;2023-05-29T11:36:32;9.43;;;1.10;;
37641;SDS011;23486;51.956;5.888;2023-05-29T11:38:58;6.60;;;1.17;;
37641;SDS011;23486;51.956;5.888;2023-05-29T11:41:25;10.52;;;1.35;;
37641;SDS011;23486;51.956;5.888;2023-05-29T11:46:30;9.85;;;1.20;;
37641;SDS011;23486;51.956;5.888;2023-05-29T11:48:57;6.22;;;0.80;;
37641;SDS011;23486;51.956;5.888;2023-05-29T11:51:24;6.20;;;0.77;;
37641;SDS011;23486;51.956;5.888;2023-05-29T11:53:50;11.23;;;0.93;;
37641;SDS011;23486;51.956;5.888;2023-05-29T11:56:22;6.97;;;1.33;;
37641;SDS011;23486;51.956;5.888;2023-05-29T11:58:50;8.23;;;1.20;;
37641;SDS011;23486;51.956;5.888;2023-05-29T12:01:16;12.07;;;1.05;;
37641;SDS011;23486;51.956;5.888;2023-05-29T12:03:44;8.85;;;1.15;;
37641;SDS011;23486;51.956;5.888;2023-05-29T12:06:09;8.10;;;1.10;;
37641;SDS011;23486;51.956;5.888;2023-05-29T12:08:36;7.93;;;0.70;;
37641;SDS011;23486;51.956;5.888;2023-05-29T12:11:02;6.28;;;1.05;;
37641;SDS011;23486;51.956;5.888;2023-05-29T12:13:33;7.55;;;1.27;;
37641;SDS011;23486;51.956;5.888;2023-05-29T12:15:59;9.65;;;1.27;;
37641;SDS011;23486;51.956;5.888;2023-05-29T12:18:28;7.45;;;0.85;;
37641;SDS011;23486;51.956;5.888;2023-05-29T12:21:01;7.45;;;0.90;;
37641;SDS011;23486;51.956;5.888;2023-05-29T12:23:30;8.50;;;1.17;;
37641;SDS011;23486;51.956;5.888;2023-05-29T12:25:56;8.07;;;1.00;;
37641;SDS011;23486;51.956;5.888;2023-05-29T12:28:23;8.00;;;0.90;;
37641;SDS011;23486;51.956;5.888;2023-05-29T12:30:50;10.20;;;1.30;;
37641;SDS011;23486;51.956;5.888;2023-05-29T12:35:53;7.30;;;1.15;;
37641;SDS011;23486;51.956;5.888;2023-05-29T12:38:19;10.40;;;1.52;;
37641;SDS011;23486;51.956;5.888;2023-05-29T12:40:47;10.55;;;1.23;;
37641;SDS011;23486;51.956;5.888;2023-05-29T12:43:13;8.63;;;1.25;;
37641;SDS011;23486;51.956;5.888;2023-05-29T12:45:39;7.05;;;0.95;;
37641;SDS011;23486;51.956;5.888;2023-05-29T12:48:06;9.68;;;1.20;;
37641;SDS011;23486;51.956;5.888;2023-05-29T12:50:33;11.35;;;1.42;;
37641;SDS011;23486;51.956;5.888;2023-05-29T12:53:03;9.93;;;1.02;;
37641;SDS011;23486;51.956;5.888;2023-05-29T12:55:33;8.38;;;1.10;;
37641;SDS011;23486;51.956;5.888;2023-05-29T12:58:13;8.48;;;1.77;;
37641;SDS011;23486;51.956;5.888;2023-05-29T13:00:40;6.32;;;1.10;;
37641;SDS011;23486;51.956;5.888;2023-05-29T13:03:07;11.38;;;1.50;;
37641;SDS011;23486;51.956;5.888;2023-05-29T13:05:34;11.95;;;1.25;;
37641;SDS011;23486;51.956;5.888;2023-05-29T13:08:00;7.13;;;1.23;;
37641;SDS011;23486;51.956;5.888;2023-05-29T13:10:27;9.63;;;1.40;;
37641;SDS011;23486;51.956;5.888;2023-05-29T13:12:53;11.25;;;1.48;;
37641;SDS011;23486;51.956;5.888;2023-05-29T13:15:20;9.15;;;0.95;;
37641;SDS011;23486;51.956;5.888;2023-05-29T13:17:47;6.25;;;1.02;;
37641;SDS011;23486;51.956;5.888;2023-05-29T13:20:13;6.72;;;1.00;;
37641;SDS011;23486;51.956;5.888;2023-05-29T13:22:40;7.53;;;1.10;;
37641;SDS011;23486;51.956;5.888;2023-05-29T13:25:07;7.10;;;1.10;;
37641;SDS011;23486;51.956;5.888;2023-05-29T13:27:37;7.72;;;1.05;;
37641;SDS011;23486;51.956;5.888;2023-05-29T13:30:04;9.00;;;1.10;;
37641;SDS011;23486;51.956;5.888;2023-05-29T13:32:30;8.45;;;0.90;;
37641;SDS011;23486;51.956;5.888;2023-05-29T13:34:56;9.68;;;1.15;;
37641;SDS011;23486;51.956;5.888;2023-05-29T13:37:22;8.68;;;1.25;;
37641;SDS011;23486;51.956;5.888;2023-05-29T13:39:48;4.88;;;0.88;;
37641;SDS011;23486;51.956;5.888;2023-05-29T13:42:13;7.88;;;0.93;;
37641;SDS011;23486;51.956;5.888;2023-05-29T13:44:39;10.32;;;1.25;;
37641;SDS011;23486;51.956;5.888;2023-05-29T13:47:05;7.53;;;1.20;;
37641;SDS011;23486;51.956;5.888;2023-05-29T13:49:32;6.05;;;0.90;;
37641;SDS011;23486;51.956;5.888;2023-05-29T13:51:58;5.72;;;0.70;;
37641;SDS011;23486;51.956;5.888;2023-05-29T13:54:24;9.15;;;1.00;;
37641;SDS011;23486;51.956;5.888;2023-05-29T13:56:49;7.18;;;1.27;;
37641;SDS011;23486;51.956;5.888;2023-05-29T13:59:15;12.15;;;1.35;;
37641;SDS011;23486;51.956;5.888;2023-05-29T14:01:41;10.65;;;1.10;;
37641;SDS011;23486;51.956;5.888;2023-05-29T14:04:10;7.65;;;0.90;;
37641;SDS011;23486;51.956;5.888;2023-05-29T14:06:35;6.95;;;0.70;;
37641;SDS011;23486;51.956;5.888;2023-05-29T14:09:02;6.68;;;0.70;;
37641;SDS011;23486;51.956;5.888;2023-05-29T14:11:28;6.20;;;0.90;;
37641;SDS011;23486;51.956;5.888;2023-05-29T14:13:54;6.25;;;0.82;;
37641;SDS011;23486;51.956;5.888;2023-05-29T14:16:19;6.85;;;1.00;;
37641;SDS011;23486;51.956;5.888;2023-05-29T14:18:45;15.15;;;1.48;;
37641;SDS011;23486;51.956;5.888;2023-05-29T14:21:13;7.10;;;0.75;;
37641;SDS011;23486;51.956;5.888;2023-05-29T14:23:39;6.13;;;1.08;;
37641;SDS011;23486;51.956;5.888;2023-05-29T14:26:04;9.98;;;1.35;;
37641;SDS011;23486;51.956;5.888;2023-05-29T14:28:30;7.93;;;1.05;;
37641;SDS011;23486;51.956;5.888;2023-05-29T14:30:55;7.13;;;0.90;;
37641;SDS011;23486;51.956;5.888;2023-05-29T14:33:21;4.75;;;0.80;;
37641;SDS011;23486;51.956;5.888;2023-05-29T14:35:46;5.32;;;0.80;;
37641;SDS011;23486;51.956;5.888;2023-05-29T14:38:12;5.93;;;0.70;;
37641;SDS011;23486;51.956;5.888;2023-05-29T14:40:37;5.97;;;0.65;;
37641;SDS011;23486;51.956;5.888;2023-05-29T14:43:03;4.90;;;1.08;;
37641;SDS011;23486;51.956;5.888;2023-05-29T14:45:29;5.47;;;0.77;;
37641;SDS011;23486;51.956;5.888;2023-05-29T14:47:55;8.30;;;1.20;;
37641;SDS011;23486;51.956;5.888;2023-05-29T14:50:20;7.78;;;1.00;;
37641;SDS011;23486;51.956;5.888;2023-05-29T14:52:46;8.10;;;1.10;;
37641;SDS011;23486;51.956;5.888;2023-05-29T14:55:12;7.22;;;1.13;;
37641;SDS011;23486;51.956;5.888;2023-05-29T14:57:40;6.40;;;0.93;;
37641;SDS011;23486;51.956;5.888;2023-05-29T15:00:06;8.75;;;1.02;;
37641;SDS011;23486;51.956;5.888;2023-05-29T15:02:34;7.95;;;0.85;;
37641;SDS011;23486;51.956;5.888;2023-05-29T15:05:01;7.70;;;1.08;;
37641;SDS011;23486;51.956;5.888;2023-05-29T15:07:27;8.70;;;0.98;;
37641;SDS011;23486;51.956;5.888;2023-05-29T15:09:52;8.20;;;0.82;;
37641;SDS011;23486;51.956;5.888;2023-05-29T15:12:18;7.15;;;1.00;;
37641;SDS011;23486;51.956;5.888;2023-05-29T15:14:43;6.93;;;1.13;;